createdAt,value
2023-09-23T00:06:51.120Z,11.25
2023-09-23T00:36:51.116Z,11.06
2023-09-23T01:06:51.120Z,10.81
2023-09-23T01:36:51.137Z,10.25
2023-09-23T02:06:51.158Z,10.38
2023-09-23T02:36:51.159Z,10.19
2023-09-23T03:06:51.201Z,10.31
2023-09-23T03:36:51.155Z,10.31
2023-09-23T04:06:51.155Z,10.25
2023-09-23T04:36:51.170Z,10.19
2023-09-23T05:06:51.175Z,9.81
2023-09-23T05:36:51.185Z,9.63
2023-09-23T06:06:51.177Z,10
2023-09-23T06:36:51.174Z,10.25
2023-09-23T07:06:51.183Z,11.56
2023-09-23T07:36:51.192Z,12.25
2023-09-23T08:06:51.192Z,12.13
2023-09-23T09:06:51.242Z,12.81
2023-09-23T09:36:51.213Z,13.63
2023-09-23T10:06:51.204Z,14.06
2023-09-23T10:36:51.220Z,15.25
2023-09-23T11:06:51.210Z,14.56
2023-09-23T11:36:51.224Z,16.38
2023-09-23T12:06:51.233Z,15.81
2023-09-23T12:36:51.289Z,15.63
2023-09-23T13:06:51.239Z,16.19
2023-09-23T13:36:51.243Z,17.13
2023-09-23T14:06:51.251Z,19.19
2023-09-23T14:36:51.245Z,18
2023-09-23T15:06:51.242Z,16.44
2023-09-23T15:36:51.253Z,16
2023-09-23T16:06:51.253Z,16.19
2023-09-23T16:36:51.254Z,15.63
2023-09-23T17:06:51.264Z,14.94
2023-09-23T17:36:51.280Z,14.13
2023-09-23T18:06:51.290Z,14
2023-09-23T18:36:51.306Z,13.19
2023-09-23T19:06:51.314Z,12.44
2023-09-23T19:36:51.299Z,11.81
2023-09-23T20:06:51.293Z,11.56
2023-09-23T20:36:51.305Z,11.75
2023-09-23T21:06:51.313Z,11.19
2023-09-23T21:36:51.308Z,11
2023-09-23T22:06:51.321Z,10.38
2023-09-23T22:36:51.315Z,10.06
2023-09-23T23:06:51.374Z,9.75
2023-09-23T23:36:51.342Z,9.44
